createdAt,value
2022-10-05T00:03:17.548Z,97.40
2022-10-05T00:08:21.914Z,97.63
2022-10-05T00:13:25.306Z,98.23
2022-10-05T00:18:27.041Z,98.34
2022-10-05T00:23:30.860Z,98.42
2022-10-05T00:28:32.540Z,99.12
2022-10-05T00:33:34.200Z,99.16
2022-10-05T00:38:35.920Z,99.46
2022-10-05T00:44:01.993Z,99.46
2022-10-05T00:49:13.201Z,99.71
2022-10-05T00:54:24.134Z,99.75
2022-10-05T00:59:41.462Z,100.00
2022-10-05T01:05:12.362Z,100.00
2022-10-05T01:10:19.465Z,100.00
2022-10-05T01:15:32.857Z,100.00
2022-10-05T01:20:51.287Z,100.00
2022-10-05T01:26:01.962Z,100.00
2022-10-05T01:31:38.210Z,100.00
2022-10-05T01:36:45.767Z,100.00
2022-10-05T01:42:08.730Z,100.00
2022-10-05T01:47:24.074Z,100.00
2022-10-05T01:52:59.089Z,100.00
2022-10-05T01:58:12.586Z,100.00
2022-10-05T02:03:18.654Z,100.00
2022-10-05T02:08:37.945Z,100.00
2022-10-05T02:13:50.761Z,100.00
2022-10-05T02:19:03.428Z,100.00
2022-10-05T02:24:08.923Z,100.00
2022-10-05T02:29:11.680Z,100.00
2022-10-05T02:34:27.534Z,100.00
2022-10-05T02:40:14.055Z,100.00
2022-10-05T02:45:34.549Z,100.00
2022-10-05T02:50:53.717Z,100.00
2022-10-05T02:56:05.507Z,100.00
2022-10-05T03:01:30.703Z,100.00
2022-10-05T03:06:40.413Z,100.00
2022-10-05T03:12:00.878Z,99.73
2022-10-05T03:17:18.152Z,99.68
2022-10-05T03:22:30.300Z,99.57
2022-10-05T03:27:45.408Z,99.63
2022-10-05T03:32:58.693Z,99.44
2022-10-05T03:38:20.672Z,99.62
2022-10-05T03:43:57.670Z,99.27
2022-10-05T03:49:18.099Z,99.35
2022-10-05T03:54:36.088Z,99.65
2022-10-05T04:00:07.270Z,99.67
2022-10-05T04:05:35.857Z,99.48
2022-10-05T04:10:51.546Z,99.55
2022-10-05T04:16:13.288Z,99.39
2022-10-05T04:21:31.421Z,99.38
2022-10-05T04:26:43.640Z,99.46
2022-10-05T04:32:01.865Z,99.86
2022-10-05T04:37:06.455Z,100.00
2022-10-05T04:42:09.390Z,99.93
2022-10-05T04:47:32.957Z,100.00
2022-10-05T04:52:53.521Z,100.00
2022-10-05T04:58:16.657Z,100.00
2022-10-05T05:03:30.537Z,100.00
2022-10-05T05:08:53.554Z,100.00
2022-10-05T05:14:01.440Z,100.00
2022-10-05T05:19:06.182Z,100.00
2022-10-05T05:24:20.227Z,100.00
2022-10-05T05:29:34.278Z,100.00
2022-10-05T05:35:14.512Z,100.00
2022-10-05T05:40:23.775Z,100.00
2022-10-05T05:45:41.982Z,100.00
2022-10-05T05:51:03.514Z,100.00
2022-10-05T05:56:07.023Z,100.00
2022-10-05T06:01:33.138Z,100.00
2022-10-05T06:06:39.573Z,100.00
2022-10-05T06:11:46.977Z,100.00
2022-10-05T06:16:51.955Z,100.00
2022-10-05T06:22:08.974Z,100.00
2022-10-05T06:27:17.914Z,100.00
2022-10-05T06:32:56.243Z,100.00
2022-10-05T06:38:35.901Z,100.00
2022-10-05T06:43:48.605Z,99.16
2022-10-05T06:49:30.279Z,98.10
2022-10-05T06:55:03.263Z,97.68
2022-10-05T07:00:17.202Z,97.66
2022-10-05T07:05:34.524Z,97.13
2022-10-05T07:10:48.719Z,96.91
2022-10-05T07:15:54.486Z,97.04
2022-10-05T07:21:19.625Z,97.12
2022-10-05T07:26:41.336Z,96.99
2022-10-05T07:31:48.234Z,96.93
2022-10-05T07:37:21.872Z,97.12
2022-10-05T07:42:52.078Z,97.06
2022-10-05T07:47:59.083Z,96.13
2022-10-05T07:53:19.489Z,95.51
2022-10-05T07:58:47.759Z,95.30
2022-10-05T08:04:14.509Z,94.76
2022-10-05T08:09:26.203Z,94.23
2022-10-05T08:14:46.728Z,93.84
2022-10-05T08:20:16.169Z,93.51
2022-10-05T08:25:22.220Z,93.44
2022-10-05T08:30:23.903Z,93.69
2022-10-05T08:35:40.452Z,93.43
2022-10-05T08:40:54.625Z,93.61
2022-10-05T08:46:26.438Z,92.63
2022-10-05T08:51:30.933Z,92.45
2022-10-05T08:56:35.305Z,91.59
2022-10-05T09:01:45.478Z,90.72
2022-10-05T09:07:17.733Z,89.83
2022-10-05T09:12:42.209Z,89.09
2022-10-05T09:18:06.048Z,89.21
2022-10-05T09:23:15.152Z,89.86
2022-10-05T09:28:37.621Z,89.14
2022-10-05T09:34:07.673Z,88.94
2022-10-05T09:39:41.809Z,89.00
2022-10-05T09:45:21.067Z,89.01
2022-10-05T09:50:38.391Z,89.43
2022-10-05T09:55:50.578Z,87.62
2022-10-05T10:01:08.955Z,87.44
2022-10-05T10:06:51.387Z,88.55
2022-10-05T10:12:11.597Z,87.41
2022-10-05T10:17:47.200Z,86.57
2022-10-05T10:23:12.040Z,86.31
2022-10-05T10:28:30.851Z,87.52
2022-10-05T10:33:35.381Z,85.98
2022-10-05T10:38:41.685Z,85.21
2022-10-05T10:44:22.611Z,84.68
2022-10-05T10:49:45.989Z,84.11
2022-10-05T10:55:15.225Z,83.36
2022-10-05T11:00:42.140Z,82.48
2022-10-05T11:06:07.720Z,81.11
2022-10-05T11:11:14.352Z,80.44
2022-10-05T11:16:19.755Z,80.90
2022-10-05T11:21:37.971Z,79.83
2022-10-05T11:26:45.255Z,79.61
2022-10-05T11:32:04.976Z,79.28
2022-10-05T11:37:10.479Z,78.78
2022-10-05T11:42:33.921Z,80.08
2022-10-05T11:48:01.729Z,80.29
2022-10-05T11:53:07.644Z,80.72
2022-10-05T11:58:19.579Z,80.87
2022-10-05T12:03:45.701Z,81.31
2022-10-05T12:08:57.721Z,81.45
2022-10-05T12:14:21.442Z,81.36
2022-10-05T12:19:28.238Z,81.53
2022-10-05T12:24:35.918Z,80.21
2022-10-05T12:29:44.137Z,80.26
2022-10-05T12:35:03.211Z,82.54
2022-10-05T12:40:08.577Z,81.57
2022-10-05T12:45:31.894Z,80.71
2022-10-05T12:50:34.620Z,77.24
2022-10-05T12:55:48.852Z,75.15
2022-10-05T13:01:22.824Z,71.56
2022-10-05T13:06:36.647Z,69.89
2022-10-05T13:12:07.511Z,68.06
2022-10-05T13:17:41.652Z,66.77
2022-10-05T13:22:43.797Z,67.74
2022-10-05T13:27:56.112Z,69.63
2022-10-05T13:33:02.123Z,69.71
2022-10-05T13:38:22.060Z,69.72
2022-10-05T13:43:52.387Z,70.37
2022-10-05T13:49:16.423Z,71.23
2022-10-05T13:54:46.099Z,71.23
2022-10-05T13:59:55.645Z,67.99
2022-10-05T14:05:02.161Z,65.92
2022-10-05T14:10:07.196Z,66.34
2022-10-05T14:15:32.126Z,64.29
2022-10-05T14:20:35.094Z,64.50
2022-10-05T14:25:50.112Z,63.63
2022-10-05T14:31:15.923Z,65.34
2022-10-05T14:36:33.670Z,67.89
2022-10-05T14:41:35.727Z,69.48
2022-10-05T14:46:39.382Z,70.44
2022-10-05T14:51:42.727Z,70.46
2022-10-05T14:56:53.359Z,71.12
2022-10-05T15:02:18.951Z,70.28
2022-10-05T15:07:26.244Z,70.15
2022-10-05T15:12:32.876Z,67.94
2022-10-05T15:17:39.084Z,67.38
2022-10-05T15:23:12.191Z,65.30
2022-10-05T15:28:33.992Z,64.70
2022-10-05T15:33:45.642Z,65.54
2022-10-05T15:39:01.907Z,66.74
2022-10-05T15:44:26.334Z,67.66
2022-10-05T15:49:42.905Z,67.35
2022-10-05T15:54:55.797Z,70.66
2022-10-05T16:00:04.032Z,68.61
2022-10-05T16:05:07.785Z,70.72
2022-10-05T16:10:23.366Z,71.83
2022-10-05T16:15:37.029Z,73.26
2022-10-05T16:20:45.868Z,74.40
2022-10-05T16:25:58.713Z,76.04
2022-10-05T16:31:37.369Z,76.63
2022-10-05T16:36:47.515Z,77.45
2022-10-05T16:42:05.337Z,77.84
2022-10-05T16:47:34.862Z,78.59
2022-10-05T16:52:37.803Z,79.19
2022-10-05T16:57:41.729Z,80.05
2022-10-05T17:03:02.218Z,81.07
2022-10-05T17:08:44.604Z,82.47
2022-10-05T17:14:36.491Z,83.40
2022-10-05T17:20:06.942Z,84.48
2022-10-05T17:25:24.117Z,85.09
2022-10-05T17:30:48.669Z,85.73
2022-10-05T17:35:53.365Z,86.80
2022-10-05T17:41:23.093Z,87.75
2022-10-05T17:46:48.338Z,88.36
2022-10-05T17:52:14.735Z,88.81
2022-10-05T17:57:23.566Z,89.19
2022-10-05T18:02:43.292Z,89.11
2022-10-05T18:07:49.597Z,89.04
2022-10-05T18:13:20.738Z,88.97
2022-10-05T18:18:35.081Z,88.91
2022-10-05T18:23:36.721Z,88.83
2022-10-05T18:28:47.510Z,88.56
2022-10-05T18:34:27.450Z,88.36
2022-10-05T18:39:40.566Z,88.19
2022-10-05T18:44:45.241Z,88.47
2022-10-05T18:50:03.172Z,88.37
2022-10-05T18:55:20.737Z,88.81
2022-10-05T19:00:23.313Z,88.93
2022-10-05T19:05:48.737Z,89.13
2022-10-05T19:10:55.249Z,89.21
2022-10-05T19:16:18.505Z,89.25
2022-10-05T19:21:26.335Z,89.57
2022-10-05T19:26:46.775Z,89.61
2022-10-05T19:31:52.948Z,90.23
2022-10-05T19:37:18.107Z,90.85
2022-10-05T19:42:52.985Z,91.28
2022-10-05T19:48:07.475Z,91.76
2022-10-05T19:53:12.772Z,91.77
2022-10-05T19:58:17.428Z,91.99
2022-10-05T20:03:23.364Z,91.90
2022-10-05T20:08:28.533Z,92.08
2022-10-05T20:13:33.378Z,92.21
2022-10-05T20:19:02.988Z,92.50
2022-10-05T20:24:14.758Z,93.13
2022-10-05T20:29:16.408Z,93.36
2022-10-05T20:34:18.083Z,93.93
2022-10-05T20:39:21.181Z,94.67
2022-10-05T20:44:52.934Z,94.91
2022-10-05T20:49:57.536Z,94.75
2022-10-05T20:54:59.265Z,94.09
2022-10-05T21:00:00.954Z,93.42
2022-10-05T21:05:04.507Z,92.57
2022-10-05T21:10:06.616Z,92.47
2022-10-05T21:15:10.055Z,91.73
2022-10-05T21:20:12.247Z,90.56
2022-10-05T21:25:13.991Z,89.76
2022-10-05T21:30:15.756Z,89.26
2022-10-05T21:35:17.392Z,88.85
2022-10-05T21:40:19.139Z,88.68
2022-10-05T21:45:20.815Z,88.85
2022-10-05T21:50:22.700Z,88.62
2022-10-05T21:55:24.959Z,88.35
2022-10-05T22:00:26.606Z,88.55
2022-10-05T22:05:28.574Z,88.68
2022-10-05T22:10:30.539Z,89.09
2022-10-05T22:15:32.227Z,89.43
2022-10-05T22:20:34.442Z,89.40
2022-10-05T22:25:36.080Z,89.52
2022-10-05T22:30:37.868Z,89.18
2022-10-05T22:35:39.537Z,89.17
2022-10-05T22:40:41.212Z,88.75
2022-10-05T22:45:42.983Z,88.67
2022-10-05T22:50:45.406Z,88.48
2022-10-05T22:55:47.117Z,88.47
2022-10-05T23:00:58.064Z,88.76
2022-10-05T23:06:04.583Z,88.91
2022-10-05T23:11:14.219Z,89.00
2022-10-05T23:16:17.269Z,89.52
2022-10-05T23:21:19.820Z,89.64
2022-10-05T23:26:23.482Z,90.03
2022-10-05T23:31:26.818Z,90.30
2022-10-05T23:36:32.053Z,90.12
2022-10-05T23:41:34.308Z,89.97
2022-10-05T23:46:35.976Z,89.99
2022-10-05T23:51:37.674Z,89.81
2022-10-05T23:56:39.324Z,89.95
